createdAt,value
2018-09-09T00:00:30.406Z,98424.52
2018-09-09T00:02:58.693Z,98405.95
2018-09-09T00:05:26.896Z,98428.75
2018-09-09T00:07:55.081Z,98424.26
2018-09-09T00:10:23.246Z,98424.84
2018-09-09T00:12:51.481Z,98427.64
2018-09-09T00:15:19.662Z,98430.16
2018-09-09T00:17:47.885Z,98427.98
2018-09-09T00:20:16.062Z,98427.58
2018-09-09T00:22:44.292Z,98430.00
2018-09-09T00:25:12.421Z,98429.38
2018-09-09T00:27:40.604Z,98429.91
2018-09-09T00:30:08.781Z,98425.34
2018-09-09T00:32:36.965Z,98431.10
2018-09-09T00:35:05.233Z,98431.30
2018-09-09T00:37:33.433Z,98432.38
2018-09-09T00:40:01.605Z,98432.64
2018-09-09T00:42:29.797Z,98426.66
2018-09-09T00:44:58.061Z,98426.43
2018-09-09T00:47:26.264Z,98425.83
2018-09-09T00:49:59.805Z,98434.17
2018-09-09T00:52:33.350Z,98426.51
2018-09-09T00:55:01.525Z,98428.00
2018-09-09T00:57:29.733Z,98432.20
2018-09-09T00:59:57.933Z,98438.78
2018-09-09T01:02:26.125Z,98433.84
2018-09-09T01:04:54.308Z,98436.20
2018-09-09T01:07:22.488Z,98439.13
2018-09-09T01:09:50.708Z,98440.09
2018-09-09T01:12:18.973Z,98443.61
2018-09-09T01:14:47.493Z,98438.74
2018-09-09T01:17:15.746Z,98437.05
2018-09-09T01:19:43.918Z,98440.42
2018-09-09T01:22:12.134Z,98435.23
2018-09-09T01:24:40.325Z,98434.10
2018-09-09T01:27:08.628Z,98437.36
2018-09-09T01:29:36.889Z,98436.88
2018-09-09T01:32:05.105Z,98438.48
2018-09-09T01:34:33.293Z,98439.48
2018-09-09T01:37:01.561Z,98435.03
2018-09-09T01:39:30.560Z,98431.41
2018-09-09T01:41:58.752Z,98442.63
2018-09-09T01:44:27.029Z,98431.41
2018-09-09T01:46:55.241Z,98434.33
2018-09-09T01:49:23.413Z,98433.69
2018-09-09T01:51:51.594Z,98442.63
2018-09-09T01:54:19.771Z,98439.08
2018-09-09T01:56:47.975Z,98441.05
2018-09-09T01:59:16.149Z,98444.88
2018-09-09T02:01:44.350Z,98449.11
2018-09-09T02:04:12.537Z,98443.24
2018-09-09T02:06:40.714Z,98435.92
2018-09-09T02:09:08.889Z,98443.72
2018-09-09T02:11:37.085Z,98439.50
2018-09-09T02:14:05.270Z,98438.58
2018-09-09T02:16:33.558Z,98440.22
2018-09-09T02:19:01.734Z,98436.17
2018-09-09T02:21:29.906Z,98432.17
2018-09-09T02:23:58.122Z,98437.53
2018-09-09T02:26:26.409Z,98439.08
2018-09-09T02:28:54.601Z,98439.09
2018-09-09T02:31:22.885Z,98440.88
2018-09-09T02:33:51.290Z,98439.33
2018-09-09T02:36:19.449Z,98444.31
2018-09-09T02:38:47.654Z,98448.05
2018-09-09T02:41:15.929Z,98446.19
2018-09-09T02:43:44.222Z,98445.54
2018-09-09T02:46:12.320Z,98445.86
2018-09-09T02:48:40.497Z,98451.62
2018-09-09T02:51:08.677Z,98451.72
2018-09-09T02:53:36.857Z,98454.47
2018-09-09T02:56:10.721Z,98456.91
2018-09-09T02:58:38.884Z,98457.48
2018-09-09T03:01:07.450Z,98459.44
2018-09-09T03:03:35.638Z,98455.61
2018-09-09T03:06:03.818Z,98457.23
2018-09-09T03:08:32.004Z,98457.83
2018-09-09T03:11:05.481Z,98453.50
2018-09-09T03:13:33.946Z,98454.22
2018-09-09T03:16:02.128Z,98446.00
2018-09-09T03:18:30.418Z,98451.86
2018-09-09T03:20:58.590Z,98445.53
2018-09-09T03:23:26.789Z,98438.78
2018-09-09T03:25:54.970Z,98436.48
2018-09-09T03:28:23.605Z,98433.55
2018-09-09T03:30:51.739Z,98430.06
2018-09-09T03:33:19.917Z,98431.92
2018-09-09T03:35:48.158Z,98428.75
2018-09-09T03:38:16.669Z,98430.95
2018-09-09T03:40:44.838Z,98430.87
2018-09-09T03:43:13.039Z,98434.72
2018-09-09T03:45:41.225Z,98433.38
2018-09-09T03:48:09.409Z,98434.11
2018-09-09T03:50:37.589Z,98434.55
2018-09-09T03:53:05.823Z,98436.96
2018-09-09T03:55:34.049Z,98440.61
2018-09-09T03:58:02.505Z,98435.73
2018-09-09T04:00:30.894Z,98432.18
2018-09-09T04:02:59.085Z,98438.67
2018-09-09T04:05:27.258Z,98438.84
2018-09-09T04:07:55.509Z,98436.47
2018-09-09T04:10:23.761Z,98444.27
2018-09-09T04:12:51.995Z,98444.93
2018-09-09T04:15:20.165Z,98445.42
2018-09-09T04:17:48.425Z,98453.55
2018-09-09T04:20:16.598Z,98448.66
2018-09-09T04:22:44.810Z,98451.84
2018-09-09T04:25:13.006Z,98457.34
2018-09-09T04:27:41.186Z,98462.05
2018-09-09T04:30:09.461Z,98462.31
2018-09-09T04:32:37.656Z,98467.77
2018-09-09T04:35:05.846Z,98475.08
2018-09-09T04:37:34.126Z,98471.37
2018-09-09T04:40:07.675Z,98472.66
2018-09-09T04:42:35.877Z,98475.68
2018-09-09T04:45:04.113Z,98480.28
2018-09-09T04:47:32.402Z,98482.20
2018-09-09T04:50:00.659Z,98479.27
2018-09-09T04:52:28.873Z,98474.13
2018-09-09T04:54:57.157Z,98481.21
2018-09-09T04:57:25.453Z,98472.69
2018-09-09T04:59:53.633Z,98471.23
2018-09-09T05:02:21.826Z,98475.12
2018-09-09T05:04:50.102Z,98474.16
2018-09-09T05:07:18.297Z,98473.83
2018-09-09T05:09:46.581Z,98476.11
2018-09-09T05:12:14.801Z,98487.50
2018-09-09T05:14:43.057Z,98489.05
2018-09-09T05:17:11.254Z,98489.67
2018-09-09T05:19:39.445Z,98499.35
2018-09-09T05:22:07.633Z,98492.63
2018-09-09T05:24:35.817Z,98495.66
2018-09-09T05:27:04.101Z,98500.87
2018-09-09T05:29:32.273Z,98493.55
2018-09-09T05:32:00.457Z,98501.84
2018-09-09T05:34:28.657Z,98504.45
2018-09-09T05:36:56.838Z,98503.66
2018-09-09T05:39:25.018Z,98507.53
2018-09-09T05:41:53.230Z,98508.20
2018-09-09T05:44:21.416Z,98508.45
2018-09-09T05:46:49.693Z,98523.49
2018-09-09T05:49:17.865Z,98522.04
2018-09-09T05:51:46.049Z,98515.67
2018-09-09T05:54:14.224Z,98514.38
2018-09-09T05:56:42.413Z,98519.45
2018-09-09T05:59:10.591Z,98516.09
2018-09-09T06:01:38.774Z,98511.38
2018-09-09T06:04:07.018Z,98516.43
2018-09-09T06:06:35.220Z,98515.37
2018-09-09T06:09:03.606Z,98513.65
2018-09-09T06:11:31.791Z,98516.58
2018-09-09T06:14:00.041Z,98520.42
2018-09-09T06:16:28.225Z,98520.84
2018-09-09T06:18:56.422Z,98523.86
2018-09-09T06:21:24.601Z,98519.62
2018-09-09T06:23:52.779Z,98519.01
2018-09-09T06:26:20.961Z,98520.73
2018-09-09T06:28:49.149Z,98527.78
2018-09-09T06:31:17.431Z,98537.29
2018-09-09T06:33:45.651Z,98529.22
2018-09-09T06:36:13.813Z,98536.63
2018-09-09T06:38:41.994Z,98537.17
2018-09-09T06:41:10.237Z,98523.52
2018-09-09T06:43:38.488Z,98530.57
2018-09-09T06:46:06.696Z,98532.55
2018-09-09T06:48:34.990Z,98531.70
2018-09-09T06:51:03.441Z,98531.03
2018-09-09T06:53:32.365Z,98540.12
2018-09-09T06:56:00.551Z,98529.16
2018-09-09T06:58:28.717Z,98507.67
2018-09-09T07:00:56.938Z,98523.41
2018-09-09T07:03:25.110Z,98526.39
2018-09-09T07:05:53.401Z,98526.25
2018-09-09T07:08:21.578Z,98520.44
2018-09-09T07:10:49.893Z,98516.13
2018-09-09T07:13:18.066Z,98516.90
2018-09-09T07:15:46.269Z,98523.81
2018-09-09T07:18:14.556Z,98533.94
2018-09-09T07:20:42.837Z,98536.83
2018-09-09T07:23:11.008Z,98533.88
2018-09-09T07:25:39.303Z,98529.59
2018-09-09T07:28:07.513Z,98525.78
2018-09-09T07:30:35.714Z,98530.52
2018-09-09T07:33:03.893Z,98537.45
2018-09-09T07:35:32.073Z,98537.36
2018-09-09T07:38:00.341Z,98536.52
2018-09-09T07:40:28.742Z,98536.92
2018-09-09T07:42:57.001Z,98534.42
2018-09-09T07:45:25.197Z,98532.36
2018-09-09T07:47:53.402Z,98537.67
2018-09-09T07:50:21.669Z,98535.04
2018-09-09T07:52:49.849Z,98536.18
2018-09-09T07:55:18.031Z,98537.42
2018-09-09T07:57:46.233Z,98534.41
2018-09-09T08:00:14.419Z,98531.53
2018-09-09T08:02:42.660Z,98532.70
2018-09-09T08:05:10.857Z,98536.56
2018-09-09T08:07:39.046Z,98522.64
2018-09-09T08:10:07.311Z,98521.36
2018-09-09T08:12:35.505Z,98539.09
2018-09-09T08:15:03.789Z,98546.06
2018-09-09T08:17:32.031Z,98542.81
2018-09-09T08:20:00.328Z,98523.42
2018-09-09T08:22:28.538Z,98549.39
2018-09-09T08:24:56.789Z,98544.31
2018-09-09T08:27:24.996Z,98555.07
2018-09-09T08:29:53.173Z,98553.42
2018-09-09T08:32:21.461Z,98559.59
2018-09-09T08:34:49.725Z,98563.98
2018-09-09T08:37:17.981Z,98565.77
2018-09-09T08:39:46.225Z,98549.04
2018-09-09T08:42:14.513Z,98558.88
2018-09-09T08:44:42.686Z,98561.59
2018-09-09T08:47:10.892Z,98554.38
2018-09-09T08:49:39.213Z,98561.02
2018-09-09T08:52:07.489Z,98544.13
2018-09-09T08:54:35.669Z,98559.73
2018-09-09T08:57:04.011Z,98556.22
2018-09-09T09:00:35.385Z,98557.89
2018-09-09T09:03:03.613Z,98544.70
2018-09-09T09:05:31.881Z,98551.72
2018-09-09T09:08:00.190Z,98545.96
2018-09-09T09:10:28.361Z,98548.00
2018-09-09T09:12:56.558Z,98546.70
2018-09-09T09:15:25.162Z,98549.23
2018-09-09T09:17:53.582Z,98543.05
2018-09-09T09:20:21.809Z,98539.20
2018-09-09T09:22:50.018Z,98539.51
2018-09-09T09:25:18.289Z,98532.05
2018-09-09T09:27:46.573Z,98535.52
2018-09-09T09:30:15.069Z,98538.77
2018-09-09T09:32:47.254Z,98536.58
2018-09-09T09:35:15.453Z,98539.27
2018-09-09T09:37:44.029Z,98536.52
2018-09-09T09:40:12.263Z,98535.75
2018-09-09T09:42:40.529Z,98533.44
2018-09-09T09:45:08.810Z,98538.85
2018-09-09T09:47:37.097Z,98533.31
2018-09-09T09:50:05.397Z,98531.91
2018-09-09T09:52:33.677Z,98530.51
2018-09-09T09:55:01.912Z,98522.62
2018-09-09T09:57:30.052Z,98518.37
2018-09-09T09:59:58.354Z,98517.33
2018-09-09T10:02:26.563Z,98514.41
2018-09-09T10:04:54.801Z,98521.91
2018-09-09T10:07:22.998Z,98515.66
2018-09-09T10:09:51.185Z,98524.22
2018-09-09T10:12:19.370Z,98522.95
2018-09-09T10:14:47.566Z,98519.36
2018-09-09T10:17:15.890Z,98522.37
2018-09-09T10:19:44.138Z,98520.78
2018-09-09T10:22:13.485Z,98514.50
2018-09-09T10:24:41.685Z,98509.40
2018-09-09T10:27:09.865Z,98508.23
2018-09-09T10:29:38.141Z,98509.38
2018-09-09T10:32:06.474Z,98508.20
2018-09-09T10:34:34.685Z,98506.97
2018-09-09T10:37:02.899Z,98508.48
2018-09-09T10:39:31.163Z,98509.51
2018-09-09T10:41:59.361Z,98506.01
2018-09-09T10:44:27.649Z,98502.85
2018-09-09T10:46:55.835Z,98502.67
2018-09-09T10:49:24.177Z,98503.27
2018-09-09T10:51:52.533Z,98492.75
2018-09-09T10:54:20.814Z,98496.19
2018-09-09T10:56:49.093Z,98491.91
2018-09-09T10:59:17.482Z,98496.17
2018-09-09T11:01:45.775Z,98499.61
2018-09-09T11:04:14.054Z,98500.14
2018-09-09T11:06:42.258Z,98495.84
2018-09-09T11:09:10.821Z,98494.88
2018-09-09T11:11:39.034Z,98493.25
2018-09-09T11:14:07.351Z,98490.84
2018-09-09T11:16:35.683Z,98484.95
2018-09-09T11:19:03.905Z,98486.65
2018-09-09T11:21:32.691Z,98485.00
2018-09-09T11:24:08.760Z,98481.76
2018-09-09T11:26:37.571Z,98478.61
2018-09-09T11:29:06.774Z,98482.19
2018-09-09T11:31:35.182Z,98483.00
2018-09-09T11:36:38.136Z,98476.83
2018-09-09T11:39:08.114Z,98474.38
2018-09-09T11:41:36.463Z,98467.81
2018-09-09T11:44:04.777Z,98470.50
2018-09-09T11:46:33.371Z,98469.02
2018-09-09T11:49:02.017Z,98462.72
2018-09-09T11:51:30.233Z,98470.63
2018-09-09T11:53:58.555Z,98473.84
2018-09-09T11:56:27.430Z,98471.50
2018-09-09T11:58:56.031Z,98473.05
2018-09-09T12:01:24.324Z,98473.25
2018-09-09T12:03:52.537Z,98468.89
2018-09-09T12:06:20.781Z,98465.24
2018-09-09T12:08:51.173Z,98467.41
2018-09-09T12:11:19.438Z,98459.08
2018-09-09T12:13:48.435Z,98460.92
2018-09-09T12:16:16.717Z,98462.72
2018-09-09T12:18:45.069Z,98460.75
2018-09-09T12:21:13.281Z,98461.34
2018-09-09T12:23:41.616Z,98467.80
2018-09-09T12:26:09.810Z,98468.95
2018-09-09T12:28:38.106Z,98467.77
2018-09-09T12:31:06.487Z,98460.48
2018-09-09T12:33:34.822Z,98457.67
2018-09-09T12:36:03.087Z,98451.39
2018-09-09T12:38:31.337Z,98455.55
2018-09-09T12:40:59.630Z,98450.41
2018-09-09T12:43:33.291Z,98455.38
2018-09-09T12:46:06.673Z,98446.92
2018-09-09T12:48:40.274Z,98456.16
2018-09-09T12:51:08.637Z,98450.73
2018-09-09T12:53:36.942Z,98445.20
2018-09-09T12:56:05.373Z,98445.17
2018-09-09T12:58:33.659Z,98452.65
2018-09-09T13:01:01.886Z,98447.83
2018-09-09T13:03:30.207Z,98445.91
2018-09-09T13:05:58.479Z,98444.66
2018-09-09T13:08:26.749Z,98443.05
2018-09-09T13:10:55.022Z,98440.27
2018-09-09T13:13:23.214Z,98440.23
2018-09-09T13:15:51.401Z,98439.62
2018-09-09T13:18:20.106Z,98438.62
2018-09-09T13:20:48.277Z,98439.22
2018-09-09T13:23:16.454Z,98443.02
2018-09-09T13:25:44.679Z,98433.77
2018-09-09T13:28:13.030Z,98434.41
2018-09-09T13:30:41.227Z,98431.05
2018-09-09T13:33:09.569Z,98433.42
2018-09-09T13:35:37.742Z,98435.27
2018-09-09T13:38:06.062Z,98435.70
2018-09-09T13:40:34.318Z,98440.88
2018-09-09T13:43:02.634Z,98437.46
2018-09-09T13:45:30.843Z,98438.50
2018-09-09T13:47:59.136Z,98433.29
2018-09-09T13:50:27.342Z,98429.64
2018-09-09T13:52:55.599Z,98427.84
2018-09-09T13:55:23.774Z,98428.22
2018-09-09T13:57:52.018Z,98430.64
2018-09-09T14:00:20.199Z,98430.66
2018-09-09T14:02:48.398Z,98426.24
2018-09-09T14:05:16.585Z,98423.42
2018-09-09T14:07:45.738Z,98423.82
2018-09-09T14:10:14.032Z,98422.22
2018-09-09T14:12:42.209Z,98419.99
2018-09-09T14:15:10.511Z,98414.98
2018-09-09T14:17:38.693Z,98416.77
2018-09-09T14:20:06.906Z,98421.42
2018-09-09T14:22:35.287Z,98413.34
2018-09-09T14:25:03.453Z,98415.16
2018-09-09T14:27:31.741Z,98421.41
2018-09-09T14:30:00.030Z,98413.14
2018-09-09T14:32:28.225Z,98410.55
2018-09-09T14:34:56.489Z,98402.89
2018-09-09T14:37:24.693Z,98402.87
2018-09-09T14:39:58.715Z,98402.28
2018-09-09T14:42:26.902Z,98400.66
2018-09-09T14:44:55.214Z,98404.28
2018-09-09T14:47:23.581Z,98401.07
2018-09-09T14:49:51.750Z,98404.70
2018-09-09T14:52:19.953Z,98408.72
2018-09-09T14:54:48.154Z,98411.49
2018-09-09T14:57:16.336Z,98404.27
2018-09-09T14:59:44.785Z,98407.48
2018-09-09T15:02:13.010Z,98404.27
2018-09-09T15:04:41.316Z,98404.27
2018-09-09T15:07:09.582Z,98400.47
2018-09-09T15:09:37.969Z,98404.28
2018-09-09T15:12:06.290Z,98398.64
2018-09-09T15:14:34.631Z,98398.03
2018-09-09T15:17:03.118Z,98352.33
2018-09-09T15:19:31.378Z,98397.80
2018-09-09T15:21:59.721Z,98391.95
2018-09-09T15:24:27.905Z,98386.51
2018-09-09T15:26:56.119Z,98390.70
2018-09-09T15:29:24.374Z,98389.94
2018-09-09T15:31:52.549Z,98380.47
2018-09-09T15:34:20.789Z,98391.48
2018-09-09T15:36:48.898Z,98384.46
2018-09-09T15:39:17.126Z,98381.28
2018-09-09T15:41:45.420Z,98388.34
2018-09-09T15:44:13.591Z,98381.88
2018-09-09T15:46:41.778Z,98386.52
2018-09-09T15:49:09.955Z,98381.25
2018-09-09T15:51:38.186Z,98382.62
2018-09-09T15:54:06.454Z,98382.00
2018-09-09T15:56:34.649Z,98381.27
2018-09-09T15:59:02.926Z,98377.03
2018-09-09T16:01:31.121Z,98381.33
2018-09-09T16:03:59.401Z,98378.14
2018-09-09T16:06:27.594Z,98377.73
2018-09-09T16:08:55.784Z,98387.37
2018-09-09T16:11:23.969Z,98389.78
2018-09-09T16:13:52.176Z,98387.34
2018-09-09T16:16:20.346Z,98381.11
2018-09-09T16:18:48.607Z,98387.94
2018-09-09T16:21:16.854Z,98393.98
2018-09-09T16:23:45.110Z,98392.98
2018-09-09T16:26:13.416Z,98397.56
2018-09-09T16:28:41.689Z,98387.30
2018-09-09T16:31:10.061Z,98393.16
2018-09-09T16:33:38.301Z,98393.31
2018-09-09T16:36:06.565Z,98398.27
2018-09-09T16:38:34.837Z,98393.54
2018-09-09T16:41:03.029Z,98393.70
2018-09-09T16:43:31.302Z,98396.36
2018-09-09T16:45:59.461Z,98400.09
2018-09-09T16:48:44.315Z,98392.13
2018-09-09T16:51:12.562Z,98397.36
2018-09-09T16:53:40.761Z,98406.73
2018-09-09T16:56:09.053Z,98404.52
2018-09-09T16:58:37.345Z,98398.34
2018-09-09T17:01:05.667Z,98398.17
2018-09-09T17:03:33.914Z,98397.45
2018-09-09T17:06:02.193Z,98399.87
2018-09-09T17:08:30.414Z,98395.73
2018-09-09T17:10:58.662Z,98395.23
2018-09-09T17:13:26.878Z,98394.80
2018-09-09T17:15:55.182Z,98396.48
2018-09-09T17:18:23.566Z,98392.73
2018-09-09T17:20:51.859Z,98394.06
2018-09-09T17:23:20.122Z,98392.06
2018-09-09T17:25:48.406Z,98398.92
2018-09-09T17:28:16.590Z,98397.08
2018-09-09T17:30:49.163Z,98399.72
2018-09-09T17:33:17.373Z,98405.36
2018-09-09T17:35:45.653Z,98408.39
2018-09-09T17:38:13.834Z,98412.61
2018-09-09T17:40:42.025Z,98412.70
2018-09-09T17:43:10.213Z,98411.56
2018-09-09T17:45:38.513Z,98414.02
2018-09-09T17:48:06.798Z,98419.26
2018-09-09T17:50:35.071Z,98420.18
2018-09-09T17:53:03.401Z,98422.61
2018-09-09T17:55:31.738Z,98419.97
2018-09-09T17:57:59.949Z,98421.70
2018-09-09T18:00:28.125Z,98429.23
2018-09-09T18:02:56.322Z,98426.23
2018-09-09T18:05:24.485Z,98422.56
2018-09-09T18:07:52.698Z,98420.25
2018-09-09T18:10:20.869Z,98428.33
2018-09-09T18:12:49.041Z,98423.29
2018-09-09T18:15:17.210Z,98426.88
2018-09-09T18:17:45.462Z,98431.95
2018-09-09T18:20:13.800Z,98434.31
2018-09-09T18:22:41.975Z,98432.47
2018-09-09T18:25:10.113Z,98429.95
2018-09-09T18:27:38.451Z,98438.89
2018-09-09T18:30:06.707Z,98446.70
2018-09-09T18:32:34.894Z,98447.09
2018-09-09T18:35:03.107Z,98447.13
2018-09-09T18:37:31.242Z,98446.37
2018-09-09T18:39:59.399Z,98444.53
2018-09-09T18:42:27.577Z,98441.78
2018-09-09T18:44:55.768Z,98445.41
2018-09-09T18:47:23.918Z,98444.95
2018-09-09T18:49:52.193Z,98450.67
2018-09-09T18:52:20.457Z,98460.02
2018-09-09T18:54:48.625Z,98456.45
2018-09-09T18:57:16.840Z,98459.70
2018-09-09T18:59:45.090Z,98464.28
2018-09-09T19:02:13.270Z,98460.06
2018-09-09T19:04:41.446Z,98461.53
2018-09-09T19:07:09.625Z,98465.79
2018-09-09T19:09:37.886Z,98464.84
2018-09-09T19:12:06.547Z,98470.67
2018-09-09T19:14:34.913Z,98468.22
2018-09-09T19:17:03.168Z,98463.67
2018-09-09T19:19:31.441Z,98468.45
2018-09-09T19:21:59.633Z,98470.20
2018-09-09T19:24:27.806Z,98474.83
2018-09-09T19:26:55.998Z,98477.03
2018-09-09T19:29:24.283Z,98478.83
2018-09-09T19:31:52.534Z,98477.93
2018-09-09T19:34:20.833Z,98486.20
2018-09-09T19:36:49.001Z,98485.05
2018-09-09T19:39:17.254Z,98480.28
2018-09-09T19:41:45.569Z,98482.97
2018-09-09T19:44:13.910Z,98486.13
2018-09-09T19:46:42.047Z,98487.49
2018-09-09T19:49:10.294Z,98490.72
2018-09-09T19:51:38.509Z,98488.13
2018-09-09T19:54:06.776Z,98493.09
2018-09-09T19:56:34.961Z,98496.19
2018-09-09T19:59:03.135Z,98497.61
2018-09-09T20:01:31.340Z,98493.81
2018-09-09T20:03:59.615Z,98493.50
2018-09-09T20:06:27.807Z,98487.68
2018-09-09T20:08:56.405Z,98498.95
2018-09-09T20:11:24.586Z,98502.92
2018-09-09T20:13:52.757Z,98495.39
2018-09-09T20:16:21.055Z,98507.16
2018-09-09T20:18:49.341Z,98509.80
2018-09-09T20:21:17.533Z,98510.05
2018-09-09T20:23:46.121Z,98502.65
2018-09-09T20:26:14.345Z,98511.38
2018-09-09T20:28:42.709Z,98512.63
2018-09-09T20:31:10.909Z,98497.49
2018-09-09T20:33:39.175Z,98513.33
2018-09-09T20:36:07.353Z,98518.38
2018-09-09T20:38:35.603Z,98508.43
2018-09-09T20:41:03.867Z,98517.64
2018-09-09T20:43:32.129Z,98521.71
2018-09-09T20:46:00.341Z,98524.98
2018-09-09T20:48:28.616Z,98528.86
2018-09-09T20:50:56.899Z,98530.63
2018-09-09T20:53:25.206Z,98524.49
2018-09-09T20:55:53.485Z,98518.94
2018-09-09T20:58:21.711Z,98527.05
2018-09-09T21:00:49.917Z,98525.80
2018-09-09T21:03:18.130Z,98528.14
2018-09-09T21:05:46.306Z,98543.30
2018-09-09T21:08:16.698Z,98536.02
2018-09-09T21:10:44.925Z,98541.79
2018-09-09T21:13:13.158Z,98541.78
2018-09-09T21:15:41.389Z,98537.35
2018-09-09T21:18:09.585Z,98538.75
2018-09-09T21:20:38.401Z,98530.25
2018-09-09T21:23:07.376Z,98540.48
2018-09-09T21:25:35.797Z,98546.81
2018-09-09T21:28:04.743Z,98540.71
2018-09-09T21:30:33.316Z,98544.42
2018-09-09T21:33:01.763Z,98544.09
2018-09-09T21:35:30.090Z,98546.83
2018-09-09T21:37:58.741Z,98550.30
2018-09-09T21:40:26.999Z,98550.66
2018-09-09T21:42:55.225Z,98549.47
2018-09-09T21:45:23.495Z,98546.14
2018-09-09T21:47:51.715Z,98536.63
2018-09-09T21:50:19.885Z,98547.75
2018-09-09T21:52:48.081Z,98550.63
2018-09-09T21:55:16.275Z,98538.89
2018-09-09T21:57:44.449Z,98545.53
2018-09-09T22:03:52.933Z,98543.17
2018-09-09T22:06:21.209Z,98530.54
2018-09-09T22:08:49.393Z,98542.12
2018-09-09T22:11:17.597Z,98544.81
2018-09-09T22:13:45.902Z,98545.86
2018-09-09T22:16:14.166Z,98544.45
2018-09-09T22:18:42.449Z,98547.23
2018-09-09T22:21:10.741Z,98537.70
2018-09-09T22:23:39.054Z,98544.66
2018-09-09T22:26:07.229Z,98541.29
2018-09-09T22:28:35.565Z,98544.87
2018-09-09T22:31:03.806Z,98534.20
2018-09-09T22:33:32.073Z,98548.38
2018-09-09T22:36:00.374Z,98548.22
2018-09-09T22:38:28.588Z,98542.41
2018-09-09T22:40:56.851Z,98549.02
2018-09-09T22:43:25.257Z,98551.98
2018-09-09T22:45:59.150Z,98549.80
2018-09-09T22:48:28.273Z,98550.30
2018-09-09T22:50:56.743Z,98547.30
2018-09-09T22:53:24.946Z,98542.41
2018-09-09T22:55:53.389Z,98540.67
2018-09-09T22:58:21.645Z,98542.83
2018-09-09T23:00:49.954Z,98537.17
2018-09-09T23:03:23.453Z,98536.83
2018-09-09T23:05:59.598Z,98543.46
2018-09-09T23:08:33.513Z,98533.83
2018-09-09T23:11:01.726Z,98539.48
2018-09-09T23:13:30.006Z,98535.91
2018-09-09T23:15:58.305Z,98537.45
2018-09-09T23:18:26.581Z,98537.45
2018-09-09T23:20:54.889Z,98531.50
2018-09-09T23:23:23.375Z,98537.58
2018-09-09T23:25:51.649Z,98533.37
2018-09-09T23:28:19.941Z,98533.77
2018-09-09T23:30:48.233Z,98535.16
2018-09-09T23:33:16.518Z,98530.67
2018-09-09T23:35:44.862Z,98530.90
2018-09-09T23:38:13.101Z,98524.69
2018-09-09T23:40:41.445Z,98528.64
2018-09-09T23:43:09.686Z,98524.13
2018-09-09T23:45:38.042Z,98526.34
2018-09-09T23:48:06.263Z,98526.08
2018-09-09T23:50:34.625Z,98522.00
2018-09-09T23:53:02.857Z,98522.77
2018-09-09T23:55:31.169Z,98516.92
2018-09-09T23:57:59.695Z,98509.63
